createdAt,value
2023-02-11T00:00:46.924Z,1.73
2023-02-11T00:05:46.240Z,1.30
2023-02-11T00:10:53.216Z,0.70
2023-02-11T00:13:24.611Z,0.77
2023-02-11T00:15:57.337Z,0.82
2023-02-11T00:18:27.883Z,1.25
2023-02-11T00:23:27.454Z,1.13
2023-02-11T00:25:57.513Z,1.15
2023-02-11T00:30:59.486Z,1.35
2023-02-11T00:33:30.054Z,1.42
2023-02-11T00:36:00.072Z,0.90
2023-02-11T00:41:00.870Z,0.95
2023-02-11T00:43:31.146Z,1.63
2023-02-11T00:48:32.645Z,1.30
2023-02-11T00:51:05.323Z,1.55
2023-02-11T00:53:36.261Z,1.33
2023-02-11T00:56:07.215Z,1.30
2023-02-11T00:58:38.412Z,1.83
2023-02-11T01:01:09.121Z,1.30
2023-02-11T01:03:39.213Z,1.35
2023-02-11T01:08:41.105Z,1.38
2023-02-11T01:11:20.434Z,1.20
2023-02-11T01:13:51.484Z,1.48
2023-02-11T01:16:22.342Z,1.40
2023-02-11T01:18:53.452Z,1.17
2023-02-11T01:21:23.596Z,1.27
2023-02-11T01:23:54.575Z,1.50
2023-02-11T01:26:24.773Z,1.30
2023-02-11T01:28:54.616Z,1.30
2023-02-11T01:33:54.998Z,1.27
2023-02-11T01:36:25.464Z,0.90
2023-02-11T01:38:55.606Z,1.10
2023-02-11T01:41:25.927Z,1.02
2023-02-11T01:44:30.438Z,1.25
2023-02-11T01:47:01.004Z,1.13
2023-02-11T01:49:34.276Z,1.33
2023-02-11T01:52:07.628Z,1.40
2023-02-11T01:55:03.255Z,1.10
2023-02-11T01:57:37.820Z,1.20
2023-02-11T02:00:14.350Z,0.93
2023-02-11T02:02:45.368Z,1.30
2023-02-11T02:08:08.516Z,1.30
2023-02-11T02:10:42.317Z,1.40
2023-02-11T02:13:13.196Z,1.30
2023-02-11T02:15:54.124Z,1.02
2023-02-11T02:18:42.883Z,1.60
2023-02-11T02:21:46.610Z,1.60
2023-02-11T02:24:25.404Z,1.85
2023-02-11T02:27:16.063Z,1.70
2023-02-11T02:29:46.184Z,2.13
2023-02-11T02:35:04.753Z,1.67
2023-02-11T02:37:53.237Z,2.30
2023-02-11T02:40:32.495Z,1.40
2023-02-11T02:43:04.389Z,1.48
2023-02-11T02:45:35.182Z,1.73
2023-02-11T02:48:05.499Z,1.63
2023-02-11T02:50:38.327Z,1.65
2023-02-11T02:53:25.828Z,1.60
2023-02-11T02:56:05.476Z,1.23
2023-02-11T02:58:50.278Z,1.38
2023-02-11T03:01:37.557Z,1.40
2023-02-11T03:04:21.590Z,1.40
2023-02-11T03:07:02.800Z,1.10
2023-02-11T03:09:49.461Z,1.10
2023-02-11T03:12:20.582Z,1.50
2023-02-11T03:14:53.305Z,1.38
2023-02-11T03:17:26.696Z,1.88
2023-02-11T03:19:58.884Z,2.17
2023-02-11T03:22:36.473Z,2.17
2023-02-11T03:25:07.052Z,1.77
2023-02-11T03:27:49.178Z,2.00
2023-02-11T03:30:27.752Z,1.83
2023-02-11T03:33:02.499Z,1.63
2023-02-11T03:35:43.017Z,2.30
2023-02-11T03:38:23.416Z,1.77
2023-02-11T03:40:55.961Z,1.55
2023-02-11T03:43:35.113Z,1.73
2023-02-11T03:46:06.236Z,1.60
2023-02-11T03:48:43.573Z,1.50
2023-02-11T03:51:15.649Z,1.40
2023-02-11T03:53:48.083Z,1.60
2023-02-11T03:56:23.055Z,1.60
2023-02-11T03:58:53.256Z,1.65
2023-02-11T04:01:23.641Z,1.38
2023-02-11T04:03:53.673Z,1.58
2023-02-11T04:06:23.446Z,1.52
2023-02-11T04:08:53.463Z,1.45
2023-02-11T04:11:23.280Z,1.85
2023-02-11T04:13:53.405Z,1.27
2023-02-11T04:18:52.945Z,1.98
2023-02-11T04:21:23.132Z,2.05
2023-02-11T04:26:22.259Z,1.48
2023-02-11T04:28:52.473Z,1.98
2023-02-11T04:31:22.694Z,1.50
2023-02-11T04:33:52.769Z,1.55
2023-02-11T04:36:22.550Z,1.70
2023-02-11T04:39:07.648Z,1.80
2023-02-11T04:41:37.638Z,1.70
2023-02-11T04:44:07.778Z,1.58
2023-02-11T04:46:38.736Z,2.00
2023-02-11T04:49:08.784Z,1.70
2023-02-11T04:51:38.542Z,2.10
2023-02-11T04:54:08.568Z,2.20
2023-02-11T04:56:38.682Z,2.47
2023-02-11T04:59:08.897Z,2.25
2023-02-11T05:01:39.681Z,2.15
2023-02-11T05:04:09.600Z,2.03
2023-02-11T05:09:13.452Z,2.50
2023-02-11T05:11:43.585Z,2.67
2023-02-11T05:16:43.227Z,2.40
2023-02-11T05:19:13.277Z,2.35
2023-02-11T05:21:56.673Z,2.92
2023-02-11T05:24:33.173Z,2.47
2023-02-11T05:27:03.706Z,2.17
2023-02-11T05:29:33.731Z,2.47
2023-02-11T05:32:03.663Z,2.05
2023-02-11T05:37:02.919Z,2.03
2023-02-11T05:39:33.908Z,2.00
2023-02-11T05:42:03.933Z,2.00
2023-02-11T05:44:34.037Z,1.70
2023-02-11T05:47:04.085Z,1.67
2023-02-11T05:49:34.196Z,1.90
2023-02-11T05:54:33.458Z,2.15
2023-02-11T05:57:03.613Z,2.10
2023-02-11T05:59:33.460Z,2.50
2023-02-11T06:02:03.554Z,2.45
2023-02-11T06:04:33.575Z,2.10
2023-02-11T06:07:03.863Z,2.35
2023-02-11T06:09:34.218Z,2.13
2023-02-11T06:14:35.435Z,2.42
2023-02-11T06:17:05.900Z,2.80
2023-02-11T06:19:35.926Z,2.35
2023-02-11T06:22:06.165Z,2.38
2023-02-11T06:24:58.507Z,2.13
2023-02-11T06:27:27.888Z,2.63
2023-02-11T06:29:57.880Z,2.15
2023-02-11T06:32:46.167Z,2.30
2023-02-11T06:35:16.591Z,2.20
2023-02-11T06:37:46.643Z,2.47
2023-02-11T06:40:16.753Z,2.33
2023-02-11T06:42:46.809Z,2.17
2023-02-11T06:45:16.544Z,1.95
2023-02-11T06:47:46.300Z,2.20
2023-02-11T06:50:16.729Z,2.30
2023-02-11T06:52:46.865Z,2.08
2023-02-11T06:55:16.939Z,2.30
2023-02-11T06:57:47.037Z,2.47
2023-02-11T07:02:46.510Z,2.17
2023-02-11T07:05:16.515Z,2.13
2023-02-11T07:07:46.557Z,2.88
2023-02-11T07:10:16.588Z,2.33
2023-02-11T07:12:46.486Z,2.72
2023-02-11T07:17:45.760Z,2.13
2023-02-11T07:20:16.123Z,3.08
2023-02-11T07:22:46.185Z,3.00
2023-02-11T07:25:16.304Z,2.75
2023-02-11T07:27:46.318Z,3.33
2023-02-11T07:30:16.909Z,3.20
2023-02-11T07:32:46.973Z,3.60
2023-02-11T07:35:17.404Z,3.50
2023-02-11T07:37:47.375Z,3.30
2023-02-11T07:40:17.524Z,3.33
2023-02-11T07:45:17.530Z,3.03
2023-02-11T07:47:47.589Z,3.67
2023-02-11T07:50:18.876Z,3.50
2023-02-11T07:52:49.090Z,3.60
2023-02-11T07:55:19.314Z,2.75
2023-02-11T08:00:21.125Z,2.85
2023-02-11T08:02:51.273Z,3.45
2023-02-11T08:05:21.463Z,3.83
2023-02-11T08:10:25.574Z,4.03
2023-02-11T08:12:56.286Z,3.53
2023-02-11T08:15:26.555Z,4.00
2023-02-11T08:17:56.330Z,3.70
2023-02-11T08:20:26.545Z,4.80
2023-02-11T08:25:25.688Z,5.03
2023-02-11T08:27:55.754Z,5.75
2023-02-11T08:30:27.569Z,5.88
2023-02-11T08:32:57.917Z,6.93
2023-02-11T08:37:57.173Z,7.47
2023-02-11T08:40:27.192Z,6.70
2023-02-11T08:42:57.185Z,6.75
2023-02-11T08:45:27.208Z,4.88
2023-02-11T08:47:57.229Z,5.25
2023-02-11T08:50:29.441Z,3.75
2023-02-11T08:52:59.436Z,4.72
2023-02-11T08:55:29.389Z,3.67
2023-02-11T08:57:59.396Z,3.80
2023-02-11T09:00:29.428Z,3.88
2023-02-11T09:02:59.448Z,3.28
2023-02-11T09:05:29.475Z,2.63
2023-02-11T09:07:59.481Z,2.47
2023-02-11T09:10:29.516Z,2.15
2023-02-11T09:12:59.519Z,2.88
2023-02-11T09:15:29.583Z,2.45
2023-02-11T09:18:00.253Z,2.13
2023-02-11T09:20:30.435Z,2.70
2023-02-11T09:23:01.120Z,2.58
2023-02-11T09:25:31.111Z,2.92
2023-02-11T09:28:01.103Z,2.40
2023-02-11T09:30:31.787Z,2.60
2023-02-11T09:33:01.767Z,2.60
2023-02-11T09:35:31.722Z,2.75
2023-02-11T09:40:30.855Z,2.50
2023-02-11T09:43:15.426Z,2.60
2023-02-11T09:45:45.609Z,3.58
2023-02-11T09:50:56.041Z,2.70
2023-02-11T09:53:28.989Z,3.60
2023-02-11T09:56:02.827Z,4.00
2023-02-11T09:58:37.632Z,4.60
2023-02-11T10:01:25.836Z,4.10
2023-02-11T10:04:17.530Z,3.67
2023-02-11T10:06:56.678Z,3.70
2023-02-11T10:09:35.757Z,4.00
2023-02-11T10:12:34.120Z,3.58
2023-02-11T10:15:17.667Z,4.00
2023-02-11T10:18:21.494Z,3.28
2023-02-11T10:21:19.314Z,2.67
2023-02-11T10:23:56.108Z,3.08
2023-02-11T10:26:29.249Z,2.70
2023-02-11T10:29:06.336Z,3.20
2023-02-11T10:31:41.531Z,2.53
2023-02-11T10:34:14.092Z,3.17
2023-02-11T10:36:46.174Z,3.03
2023-02-11T10:39:28.511Z,2.30
2023-02-11T10:42:03.754Z,3.08
2023-02-11T10:44:35.359Z,2.75
2023-02-11T10:47:22.551Z,3.33
2023-02-11T10:49:52.533Z,3.08
2023-02-11T10:52:28.989Z,2.97
2023-02-11T10:55:29.829Z,2.80
2023-02-11T10:58:05.466Z,2.78
2023-02-11T11:00:42.041Z,3.00
2023-02-11T11:03:33.207Z,2.88
2023-02-11T11:06:05.700Z,2.45
2023-02-11T11:08:46.439Z,2.42
2023-02-11T11:11:23.030Z,3.30
2023-02-11T11:14:00.344Z,2.78
2023-02-11T11:16:39.076Z,3.13
2023-02-11T11:19:09.553Z,2.72
2023-02-11T11:21:46.779Z,2.63
2023-02-11T11:24:28.032Z,2.92
2023-02-11T11:27:02.557Z,2.70
2023-02-11T11:29:47.630Z,3.00
2023-02-11T11:32:21.553Z,2.67
2023-02-11T11:34:56.708Z,2.40
2023-02-11T11:37:32.870Z,2.58
2023-02-11T11:40:24.194Z,2.50
2023-02-11T11:43:08.525Z,2.22
2023-02-11T11:45:38.532Z,1.90
2023-02-11T11:48:41.556Z,2.53
2023-02-11T11:51:15.347Z,2.58
2023-02-11T11:53:56.785Z,2.53
2023-02-11T11:56:37.037Z,2.05
2023-02-11T11:59:17.564Z,1.70
2023-02-11T12:02:02.177Z,2.25
2023-02-11T12:04:35.165Z,1.77
2023-02-11T12:07:20.162Z,1.88
2023-02-11T12:10:13.298Z,1.90
2023-02-11T12:12:46.962Z,1.80
2023-02-11T12:15:45.324Z,1.92
2023-02-11T12:18:18.075Z,1.77
2023-02-11T12:21:21.770Z,1.70
2023-02-11T12:24:30.693Z,2.50
2023-02-11T12:27:12.985Z,2.38
2023-02-11T12:30:04.931Z,2.17
2023-02-11T12:32:56.508Z,2.40
2023-02-11T12:35:50.584Z,2.65
2023-02-11T12:38:49.308Z,2.78
2023-02-11T12:42:18.712Z,2.20
2023-02-11T12:45:10.479Z,2.50
2023-02-11T12:48:02.017Z,2.30
2023-02-11T12:50:50.294Z,2.30
2023-02-11T12:53:45.818Z,2.70
2023-02-11T12:56:21.560Z,2.30
2023-02-11T12:58:55.782Z,2.38
2023-02-11T13:01:32.875Z,3.00
2023-02-11T13:04:31.879Z,2.20
2023-02-11T13:07:10.393Z,2.08
2023-02-11T13:09:56.622Z,2.25
2023-02-11T13:12:46.408Z,1.60
2023-02-11T13:15:17.356Z,1.50
2023-02-11T13:18:06.361Z,1.63
2023-02-11T13:20:51.451Z,2.20
2023-02-11T13:24:19.211Z,1.85
2023-02-11T13:27:00.594Z,1.77
2023-02-11T13:29:54.575Z,1.48
2023-02-11T13:32:24.603Z,1.50
2023-02-11T13:34:54.320Z,1.85
2023-02-11T13:40:03.916Z,1.42
2023-02-11T13:42:46.300Z,1.83
2023-02-11T13:48:17.525Z,1.70
2023-02-11T13:50:54.959Z,1.58
2023-02-11T13:53:26.007Z,1.42
2023-02-11T13:56:13.294Z,1.52
2023-02-11T13:58:51.532Z,1.50
2023-02-11T14:02:21.964Z,1.27
2023-02-11T14:05:25.051Z,1.40
2023-02-11T14:08:31.147Z,1.33
2023-02-11T14:11:09.615Z,1.67
2023-02-11T14:14:19.942Z,1.63
2023-02-11T14:17:08.050Z,1.67
2023-02-11T14:19:38.289Z,1.85
2023-02-11T14:22:17.701Z,1.70
2023-02-11T14:24:54.774Z,1.90
2023-02-11T14:27:47.937Z,1.83
2023-02-11T14:30:36.741Z,1.52
2023-02-11T14:33:24.531Z,1.33
2023-02-11T14:36:02.876Z,1.38
2023-02-11T14:38:51.237Z,1.85
2023-02-11T14:41:36.100Z,1.65
2023-02-11T14:44:20.405Z,2.15
2023-02-11T14:46:54.487Z,1.70
2023-02-11T14:49:38.152Z,1.30
2023-02-11T14:52:40.685Z,1.55
2023-02-11T14:55:33.280Z,1.48
2023-02-11T14:58:19.922Z,1.80
2023-02-11T15:01:04.568Z,1.50
2023-02-11T15:03:41.132Z,1.95
2023-02-11T15:06:33.855Z,1.73
2023-02-11T15:09:15.628Z,1.60
2023-02-11T15:11:49.269Z,1.40
2023-02-11T15:14:48.238Z,1.27
2023-02-11T15:17:25.135Z,1.33
2023-02-11T15:20:01.843Z,1.48
2023-02-11T15:22:38.097Z,1.25
2023-02-11T15:25:18.506Z,1.33
2023-02-11T15:27:51.343Z,1.10
2023-02-11T15:30:24.409Z,1.38
2023-02-11T15:32:59.962Z,1.48
2023-02-11T15:38:14.612Z,1.10
2023-02-11T15:41:01.804Z,1.30
2023-02-11T15:43:55.378Z,0.80
2023-02-11T15:46:25.686Z,0.98
2023-02-11T15:48:57.039Z,1.05
2023-02-11T15:51:47.107Z,1.08
2023-02-11T15:54:28.574Z,0.82
2023-02-11T15:57:06.377Z,1.30
2023-02-11T15:59:50.939Z,1.00
2023-02-11T16:02:23.092Z,1.17
2023-02-11T16:05:07.447Z,1.15
2023-02-11T16:07:44.506Z,0.98
2023-02-11T16:10:34.635Z,1.08
2023-02-11T16:13:10.876Z,1.10
2023-02-11T16:15:50.838Z,0.93
2023-02-11T16:18:40.358Z,1.60
2023-02-11T16:21:19.496Z,1.15
2023-02-11T16:23:55.992Z,1.30
2023-02-11T16:26:44.339Z,1.10
2023-02-11T16:31:49.910Z,1.05
2023-02-11T16:34:23.380Z,1.35
2023-02-11T16:36:54.429Z,1.10
2023-02-11T16:39:24.765Z,1.40
2023-02-11T16:41:54.858Z,1.65
2023-02-11T16:44:25.083Z,1.20
2023-02-11T16:46:56.457Z,1.42
2023-02-11T16:49:31.212Z,1.50
2023-02-11T16:52:03.071Z,1.25
2023-02-11T16:54:33.396Z,1.35
2023-02-11T16:57:07.518Z,1.67
2023-02-11T16:59:37.480Z,1.23
2023-02-11T17:02:17.260Z,1.20
2023-02-11T17:04:48.343Z,1.10
2023-02-11T17:07:18.502Z,1.02
2023-02-11T17:09:48.701Z,0.90
2023-02-11T17:12:18.564Z,1.02
2023-02-11T17:14:48.892Z,1.02
2023-02-11T17:17:18.944Z,1.23
2023-02-11T17:19:48.943Z,0.95
2023-02-11T17:22:19.846Z,1.40
2023-02-11T17:24:49.942Z,1.30
2023-02-11T17:27:20.089Z,2.05
2023-02-11T17:29:50.293Z,1.15
2023-02-11T17:32:20.476Z,1.35
2023-02-11T17:34:50.586Z,1.40
2023-02-11T17:37:20.694Z,1.42
2023-02-11T17:39:52.073Z,1.65
2023-02-11T17:42:22.231Z,1.55
2023-02-11T17:44:52.312Z,1.58
2023-02-11T17:47:23.098Z,2.20
2023-02-11T17:49:53.645Z,1.55
2023-02-11T17:52:25.370Z,1.33
2023-02-11T17:54:56.458Z,1.90
2023-02-11T17:57:26.655Z,1.38
2023-02-11T17:59:56.816Z,1.90
2023-02-11T18:02:26.942Z,1.75
2023-02-11T18:04:58.609Z,1.83
2023-02-11T18:07:29.779Z,1.50
2023-02-11T18:09:59.769Z,1.77
2023-02-11T18:12:29.748Z,1.73
2023-02-11T18:14:59.682Z,1.52
2023-02-11T18:17:29.654Z,1.67
2023-02-11T18:20:00.138Z,1.80
2023-02-11T18:22:32.073Z,1.90
2023-02-11T18:25:02.258Z,1.70
2023-02-11T18:27:32.294Z,1.75
2023-02-11T18:30:02.333Z,1.85
2023-02-11T18:32:32.868Z,1.55
2023-02-11T18:35:02.919Z,1.65
2023-02-11T18:37:32.992Z,1.60
2023-02-11T18:40:04.405Z,1.73
2023-02-11T18:42:35.460Z,2.17
2023-02-11T18:45:10.674Z,2.47
2023-02-11T18:47:40.977Z,1.80
2023-02-11T18:50:14.786Z,1.52
2023-02-11T18:52:44.842Z,1.80
2023-02-11T18:55:14.989Z,2.00
2023-02-11T18:57:45.125Z,1.77
2023-02-11T19:00:15.889Z,1.80
2023-02-11T19:02:46.093Z,1.70
2023-02-11T19:05:16.817Z,1.77
2023-02-11T19:07:47.018Z,1.70
2023-02-11T19:10:17.083Z,1.50
2023-02-11T19:12:47.154Z,1.30
2023-02-11T19:15:17.259Z,1.95
2023-02-11T19:17:47.411Z,1.33
2023-02-11T19:20:17.628Z,1.40
2023-02-11T19:22:47.671Z,1.30
2023-02-11T19:25:17.685Z,1.35
2023-02-11T19:27:47.855Z,1.60
2023-02-11T19:30:17.719Z,1.77
2023-02-11T19:32:47.852Z,1.40
2023-02-11T19:35:17.976Z,1.30
2023-02-11T19:37:48.050Z,1.45
2023-02-11T19:40:18.311Z,1.52
2023-02-11T19:42:48.730Z,1.10
2023-02-11T19:45:18.800Z,1.55
2023-02-11T19:47:48.593Z,1.27
2023-02-11T19:50:18.690Z,1.00
2023-02-11T19:52:48.958Z,1.15
2023-02-11T19:55:19.118Z,0.98
2023-02-11T19:57:49.338Z,1.00
2023-02-11T20:00:20.143Z,1.42
2023-02-11T20:02:50.264Z,1.13
2023-02-11T20:05:20.304Z,1.13
2023-02-11T20:07:50.297Z,1.15
2023-02-11T20:10:20.531Z,0.88
2023-02-11T20:12:54.110Z,0.80
2023-02-11T20:15:24.261Z,0.80
2023-02-11T20:17:54.758Z,0.77
2023-02-11T20:20:25.067Z,0.85
2023-02-11T20:23:14.511Z,0.70
2023-02-11T20:25:44.655Z,0.73
2023-02-11T20:28:14.906Z,0.57
2023-02-11T20:30:45.037Z,0.73
2023-02-11T20:33:15.356Z,0.82
2023-02-11T20:35:45.357Z,0.77
2023-02-11T20:38:15.441Z,1.00
2023-02-11T20:40:45.606Z,0.80
2023-02-11T20:43:16.540Z,0.68
2023-02-11T20:45:47.355Z,0.93
2023-02-11T20:48:17.556Z,0.82
2023-02-11T20:50:48.419Z,1.17
2023-02-11T20:53:18.554Z,0.60
2023-02-11T20:55:48.636Z,1.05
2023-02-11T20:58:19.101Z,0.70
2023-02-11T21:00:50.029Z,0.70
2023-02-11T21:03:20.158Z,0.63
2023-02-11T21:05:50.121Z,0.60
2023-02-11T21:08:20.499Z,0.57
2023-02-11T21:10:50.522Z,0.55
2023-02-11T21:13:21.097Z,0.68
2023-02-11T21:15:56.942Z,0.50
2023-02-11T21:18:27.724Z,0.63
2023-02-11T21:20:58.968Z,0.30
2023-02-11T21:23:30.175Z,0.30
2023-02-11T21:26:00.389Z,0.52
2023-02-11T21:28:30.683Z,0.60
2023-02-11T21:31:01.238Z,0.30
2023-02-11T21:33:35.706Z,0.40
2023-02-11T21:36:09.089Z,0.40
2023-02-11T21:38:39.074Z,0.70
2023-02-11T21:41:09.091Z,0.43
2023-02-11T21:43:39.342Z,0.50
2023-02-11T21:46:12.052Z,0.90
2023-02-11T21:48:42.242Z,0.60
2023-02-11T21:51:17.551Z,1.08
2023-02-11T21:53:47.860Z,0.70
2023-02-11T21:56:19.875Z,0.70
2023-02-11T21:58:54.865Z,0.70
2023-02-11T22:01:30.670Z,0.70
2023-02-11T22:04:01.341Z,0.70
2023-02-11T22:06:34.754Z,0.80
2023-02-11T22:09:07.642Z,0.50
2023-02-11T22:11:38.025Z,0.88
2023-02-11T22:14:08.136Z,0.70
2023-02-11T22:16:38.494Z,0.80
2023-02-11T22:19:09.001Z,0.70
2023-02-11T22:21:39.256Z,0.93
2023-02-11T22:24:09.302Z,0.90
2023-02-11T22:26:39.618Z,0.93
2023-02-11T22:29:09.788Z,0.80
2023-02-11T22:31:40.331Z,1.20
2023-02-11T22:34:10.769Z,1.08
2023-02-11T22:36:42.706Z,0.90
2023-02-11T22:39:18.735Z,1.27
2023-02-11T22:41:49.597Z,0.95
2023-02-11T22:44:21.145Z,1.10
2023-02-11T22:46:51.851Z,1.02
2023-02-11T22:49:23.376Z,1.20
2023-02-11T22:51:53.471Z,0.90
2023-02-11T22:54:24.001Z,0.90
2023-02-11T22:56:54.464Z,1.10
2023-02-11T22:59:24.812Z,1.13
2023-02-11T23:01:54.960Z,0.80
2023-02-11T23:04:25.135Z,0.98
2023-02-11T23:09:24.033Z,1.20
2023-02-11T23:14:25.647Z,1.00
2023-02-11T23:16:55.548Z,1.15
2023-02-11T23:19:25.682Z,1.10
2023-02-11T23:21:58.722Z,1.30
2023-02-11T23:24:30.217Z,1.55
2023-02-11T23:27:00.388Z,0.65
2023-02-11T23:29:30.570Z,0.90
2023-02-11T23:32:00.785Z,0.80
2023-02-11T23:37:00.783Z,0.70
2023-02-11T23:39:30.942Z,1.42
2023-02-11T23:42:02.233Z,0.90
2023-02-11T23:44:32.299Z,1.15
2023-02-11T23:47:02.360Z,0.90
2023-02-11T23:49:32.451Z,1.15
2023-02-11T23:52:02.495Z,0.85
2023-02-11T23:57:01.877Z,1.20
2023-02-11T23:59:31.936Z,1.27
